METAR Data
IDs: Format: Raw Decoded Include TAF

Data at: 1218 UTC 16 Jul 2019

METAR for:EBBE (Beauvechain(AB), --, BX)
Text:EBBE 161155Z VRB02KT 9999 FEW023 BKN026 17/10 Q1020 BLU BLU
Temperature: 17.0°C ( 63°F)
Dewpoint: 10.0°C ( 50°F) [RH = 63%]
Pressure (altimeter):30.12 inches Hg (1020.0 mb)
Winds:variable direction winds at 2 MPH (2 knots; 1.0 m/s)
Visibility:6 or more sm (10+ km)
Ceiling:2600 feet AGL
Clouds: few clouds at 2300 feet AGL, broken clouds at 2600 feet AGL

TAF for:EBBE (Beauvechain(AB), --, BX) issued at 1141 UTC 16 Jul 2019
Text:TAF EBBE 161141Z 1613/1622 35005KT 9999 FEW025 BKN030
Forecast period:1300 to 2200 UTC 16 July 2019
Forecast type:FROM: standard forecast or significant change
Winds:from the N (350 degrees) at 6 MPH (5 knots; 2.6 m/s)
Visibility:6 or more sm (10+ km)
Ceiling:3000 feet AGL
Clouds: few clouds at 2500 feet AGL, broken clouds at 3000 feet AGL